Gaylesville, AL (35973)

9:37 PM CST on November 22, 2014 (GMT -0600)
The Ridges | Change Station
CLOSE
Current Station
Personal Weather Station
Location: Cedar Bluff, AL
Elevation: 639 ft
Nearby Weather Stations

Elev 639 ft 34.29 °N, 85.63 °W | Updated 6 minutes ago

Overcast
Overcast
56.1 °F
Feels Like 56.1 °F
N
4.0
Wind Variable Wind from East
Gusts 8.3 mph

Today
High -- | Low -- °F
--% Chance of Precip.
Yesterday
High -- | Low -- °F
Precip. -- in
6:22 AM 4:34 PM
New Moon, 0% visible
Pressure 30.17 in
Visibility 10.0 miles
Clouds Overcast 5000 ft
Dew Point 0 °F
Humidity 10%
Rainfall 0.00 in
Snow Depth Not available.
UV 0 out of 12
Pollen .90 out of 12
Air Quality Not available.
Flu Activity Not available.
METAR K4A9 230315Z AUTO 13009G15KT 100V160 10SM OVC050 12/M03 A3017 RMK AO2

More Conditions Fewer Conditions

Pressure 30.17 in
Visibility 10.0 miles
Clouds Overcast 5000 ft
Dew Point 0 °F
Humidity 10%
Rainfall 0.00 in
Snow Depth Not available.
UV 0 out of 12
Pollen .90 out of 12
Air Quality Not available.
Flu Activity Not available.
METAR K4A9 230315Z AUTO 13009G15KT 100V160 10SM OVC050 12/M03 A3017 RMK AO2

More Conditions Fewer Conditions

10-Day Weather Forecast

Almanac

Astronomy

Nov. 22, 2014 Rise Set
Actual Time
Civil Twilight
Nautical Twilight
Astronomical Twilight
Moon
Length of Visible Light
Length of Day
Tomorrow will be .
, % of the Moon is Illuminated

Today's Extremes

State Highs State Lows

Community

WunderPhotos

Upload Photos

1,772,991 photos uploaded!

WunderBlogs® & News

Nearby

Air Quality

  Air Quality AQ Index Pollutant
Not available.

Snow Depth

Station Depth Elevation

Earthquake Activity

City Distance Mag. Time & Date
Minimum magnitude displayed is 2.5.

Coastal Water Temperatures

Place Temperature

Nearby Weather Stations